Time;durP1;ratioP1;P1;durP2;ratioP2;P2;SDS_P1;SDS_P2;PMS_P1;PMS_P2;Temp;Humidity;BMP_temperature;BMP_pressure;BME280_temperature;BME280_humidity;BME280_pressure;Samples;Min_cycle;Max_cycle;Signal;HPM_P1;HPM_P2
2023/04/16 00:02:02;;;;;;;57.40;19.85;;;;;;;;;;5006916;28;20119;-66
2023/04/16 00:04:32;;;;;;;61.25;20.08;;;;;;;;;;5007015;28;20104;-65
2023/04/16 00:07:03;;;;;;;52.88;20.17;;;;;;;;;;5006416;28;20519;-65
2023/04/16 00:09:34;;;;;;;58.65;20.95;;;;;;;;;;5006837;28;20054;-65
2023/04/16 00:12:01;;;;;;;56.85;21.02;;;;;;;;;;5005413;28;20425;-64
2023/04/16 00:14:27;;;;;;;52.58;20.80;;;;;;;;;;5007085;28;20045;-65
2023/04/16 00:16:53;;;;;;;54.22;20.35;;;;;;;;;;5006635;28;20042;-64
2023/04/16 00:19:19;;;;;;;51.50;20.52;;;;;;;;;;5006826;28;20512;-64
2023/04/16 00:21:52;;;;;;;63.88;20.25;;;;;;;;;;5006431;28;20045;-65
2023/04/16 00:24:28;;;;;;;56.67;19.27;;;;;;;;;;4993249;28;20072;-65
2023/04/16 00:26:57;;;;;;;65.70;21.50;;;;;;;;;;5006136;28;20053;-65
2023/04/16 00:29:24;;;;;;;68.20;21.80;;;;;;;;;;4993049;28;20046;-66
2023/04/16 00:31:50;;;;;;;64.07;22.50;;;;;;;;;;5006047;28;20041;-65
2023/04/16 00:34:16;;;;;;;61.97;21.15;;;;;;;;;;5006339;28;20512;-65
2023/04/16 00:36:42;;;;;;;63.03;23.83;;;;;;;;;;5006231;28;20053;-65
2023/04/16 00:39:15;;;;;;;61.72;23.88;;;;;;;;;;5006365;28;20042;-64
2023/04/16 00:41:52;;;;;;;64.18;22.13;;;;;;;;;;5004907;28;20053;-65
2023/04/16 00:44:25;;;;;;;59.97;19.63;;;;;;;;;;5006107;28;20045;-65
2023/04/16 00:47:02;;;;;;;51.67;20.40;;;;;;;;;;5006196;28;20061;-65
2023/04/16 00:49:38;;;;;;;58.55;22.50;;;;;;;;;;5006073;28;20050;-65
2023/04/16 00:52:15;;;;;;;53.67;21.17;;;;;;;;;;4993402;28;20136;-66
2023/04/16 00:54:45;;;;;;;54.20;21.00;;;;;;;;;;5005491;28;20507;-65
2023/04/16 00:57:13;;;;;;;55.60;22.60;;;;;;;;;;4987646;28;20053;-65
2023/04/16 00:59:46;;;;;;;54.17;20.63;;;;;;;;;;5005629;28;20045;-64
2023/04/16 01:02:22;;;;;;;58.17;21.65;;;;;;;;;;4992760;28;20159;-65
2023/04/16 01:04:51;;;;;;;55.30;21.00;;;;;;;;;;5005238;28;20629;-65
2023/04/16 01:07:18;;;;;;;63.10;22.83;;;;;;;;;;4991470;28;20571;-65
2023/04/16 01:09:50;;;;;;;64.18;22.30;;;;;;;;;;5005561;28;20045;-65
2023/04/16 01:12:20;;;;;;;62.85;22.60;;;;;;;;;;5092128;22;20084;-60
2023/04/16 01:14:46;;;;;;;66.35;22.10;;;;;;;;;;5007744;28;20099;-59
2023/04/16 01:17:12;;;;;;;64.60;22.08;;;;;;;;;;5011000;28;20599;-59
2023/04/16 01:19:39;;;;;;;64.85;23.20;;;;;;;;;;5022615;28;20041;-59
2023/04/16 01:22:05;;;;;;;57.75;21.67;;;;;;;;;;5024023;28;20049;-60
2023/04/16 01:24:31;;;;;;;64.90;22.55;;;;;;;;;;5024603;28;20121;-61
2023/04/16 01:26:58;;;;;;;62.80;22.48;;;;;;;;;;5024522;28;20049;-60
2023/04/16 01:29:31;;;;;;;77.75;22.45;;;;;;;;;;5025359;28;20041;-61
2023/04/16 01:32:01;;;;;;;58.58;22.35;;;;;;;;;;5024795;28;20522;-60
2023/04/16 01:34:27;;;;;;;69.10;22.30;;;;;;;;;;5025465;28;20049;-60
2023/04/16 01:36:53;;;;;;;67.40;22.38;;;;;;;;;;5023355;28;20087;-60
2023/04/16 01:39:26;;;;;;;63.50;23.83;;;;;;;;;;5024745;28;20142;-60
2023/04/16 01:41:57;;;;;;;66.13;22.60;;;;;;;;;;5023076;28;20398;-60
2023/04/16 01:44:24;;;;;;;63.80;21.40;;;;;;;;;;5023537;28;20147;-60
2023/04/16 01:46:50;;;;;;;65.07;22.48;;;;;;;;;;5023194;28;20061;-60
2023/04/16 01:49:16;;;;;;;72.63;23.60;;;;;;;;;;5024715;28;20045;-60
2023/04/16 01:51:42;;;;;;;69.53;23.60;;;;;;;;;;5024560;28;20041;-60
2023/04/16 01:54:09;;;;;;;73.75;24.42;;;;;;;;;;5024812;28;20402;-60
2023/04/16 01:56:35;;;;;;;81.47;22.70;;;;;;;;;;5023797;28;20049;-62
2023/04/16 01:59:01;;;;;;;79.35;23.00;;;;;;;;;;5024353;28;20045;-60
2023/04/16 02:01:27;;;;;;;80.55;23.20;;;;;;;;;;5022744;28;20053;-61
2023/04/16 02:03:54;;;;;;;76.75;21.98;;;;;;;;;;5023487;28;20057;-60
2023/04/16 02:06:20;;;;;;;73.90;23.23;;;;;;;;;;5024402;28;20055;-61
2023/04/16 02:08:46;;;;;;;76.00;23.13;;;;;;;;;;5024070;28;20183;-60
2023/04/16 02:11:12;;;;;;;65.82;20.65;;;;;;;;;;5022796;28;20053;-60
2023/04/16 02:13:38;;;;;;;73.20;23.13;;;;;;;;;;5023374;28;20057;-60
2023/04/16 02:16:04;;;;;;;64.20;22.20;;;;;;;;;;5023071;28;20038;-60
2023/04/16 02:18:30;;;;;;;68.07;21.20;;;;;;;;;;5023476;28;20046;-61
2023/04/16 02:20:59;;;;;;;69.38;23.23;;;;;;;;;;5023937;28;20510;-60
2023/04/16 02:23:25;;;;;;;65.47;21.65;;;;;;;;;;5024066;28;20636;-61
2023/04/16 02:25:51;;;;;;;55.38;23.50;;;;;;;;;;5023497;28;20041;-61
2023/04/16 02:28:17;;;;;;;60.40;23.05;;;;;;;;;;5022746;28;20041;-61
2023/04/16 02:30:43;;;;;;;50.65;21.27;;;;;;;;;;5022883;28;20091;-61
2023/04/16 02:33:10;;;;;;;55.25;20.80;;;;;;;;;;5023394;28;20136;-62
2023/04/16 02:35:37;;;;;;;53.15;22.90;;;;;;;;;;5023913;28;20054;-62
2023/04/16 02:38:03;;;;;;;55.08;21.70;;;;;;;;;;5022464;28;20049;-62
2023/04/16 02:40:30;;;;;;;55.38;21.20;;;;;;;;;;5023203;28;20053;-61
2023/04/16 02:42:56;;;;;;;49.55;21.77;;;;;;;;;;5021528;28;20041;-61
2023/04/16 02:45:23;;;;;;;63.22;20.25;;;;;;;;;;5021771;28;20119;-61
2023/04/16 02:47:49;;;;;;;63.92;23.27;;;;;;;;;;5022619;28;20530;-61
2023/04/16 02:50:16;;;;;;;50.53;22.15;;;;;;;;;;5023364;28;20080;-61
2023/04/16 02:52:50;;;;;;;60.45;22.55;;;;;;;;;;5019185;28;20049;-61
2023/04/16 02:55:20;;;;;;;62.17;20.53;;;;;;;;;;5020363;28;20266;-61
2023/04/16 02:57:46;;;;;;;73.05;23.23;;;;;;;;;;5021623;28;20034;-60
2023/04/16 03:00:12;;;;;;;54.03;22.85;;;;;;;;;;5021287;28;20048;-60
2023/04/16 03:02:45;;;;;;;60.08;22.05;;;;;;;;;;5021921;28;20041;-61
2023/04/16 03:05:22;;;;;;;58.45;22.25;;;;;;;;;;5021914;28;20072;-62
2023/04/16 03:07:55;;;;;;;49.80;20.52;;;;;;;;;;5022577;28;20107;-62
2023/04/16 03:10:22;;;;;;;61.75;22.83;;;;;;;;;;5021833;28;20084;-61
2023/04/16 03:12:49;;;;;;;50.70;21.05;;;;;;;;;;5021263;28;20053;-61
2023/04/16 03:15:23;;;;;;;51.28;19.92;;;;;;;;;;5022400;28;20068;-62
2023/04/16 03:17:59;;;;;;;59.67;21.13;;;;;;;;;;5022256;28;20490;-61
2023/04/16 03:20:29;;;;;;;60.08;22.55;;;;;;;;;;5022794;28;20111;-62
2023/04/16 03:22:56;;;;;;;55.80;20.52;;;;;;;;;;5023235;28;20045;-61
2023/04/16 03:25:22;;;;;;;53.85;21.08;;;;;;;;;;5023086;28;20125;-61
2023/04/16 03:27:48;;;;;;;55.47;21.40;;;;;;;;;;5021125;28;20659;-61
2023/04/16 03:30:15;;;;;;;57.38;22.35;;;;;;;;;;5022912;28;20033;-60
2023/04/16 03:32:41;;;;;;;55.90;22.55;;;;;;;;;;5022318;28;20037;-60
2023/04/16 03:35:08;;;;;;;51.63;21.98;;;;;;;;;;5022357;28;20065;-61
2023/04/16 03:37:41;;;;;;;60.75;22.85;;;;;;;;;;5022829;28;20037;-61
2023/04/16 03:40:17;;;;;;;53.10;21.67;;;;;;;;;;5022483;28;20046;-61
2023/04/16 03:42:50;;;;;;;49.33;21.23;;;;;;;;;;5021393;28;20053;-60
2023/04/16 03:45:25;;;;;;;55.75;21.30;;;;;;;;;;5021969;28;20644;-61
2023/04/16 03:47:55;;;;;;;57.47;22.02;;;;;;;;;;5022235;28;20048;-60
2023/04/16 03:50:21;;;;;;;62.83;22.20;;;;;;;;;;5022269;28;20544;-61
2023/04/16 03:52:48;;;;;;;54.10;21.75;;;;;;;;;;5021844;28;20129;-61
2023/04/16 03:55:19;;;;;;;53.35;21.27;;;;;;;;;;5022338;28;20194;-61
2023/04/16 03:57:56;;;;;;;62.70;22.15;;;;;;;;;;5021390;28;20788;-61
2023/04/16 04:00:32;;;;;;;50.40;22.98;;;;;;;;;;5023233;28;20514;-61
2023/04/16 04:03:08;;;;;;;65.30;23.77;;;;;;;;;;5022455;28;20045;-61
2023/04/16 04:05:46;;;;;;;50.25;22.80;;;;;;;;;;5021134;28;20049;-61
2023/04/16 04:08:15;;;;;;;50.08;20.70;;;;;;;;;;5021696;28;20127;-61
2023/04/16 04:10:49;;;;;;;60.03;23.42;;;;;;;;;;5022324;28;20519;-63
2023/04/16 04:13:29;;;;;;;56.92;21.95;;;;;;;;;;5025675;28;20107;-62
2023/04/16 04:15:59;;;;;;;50.33;21.65;;;;;;;;;;5024902;28;20507;-60
2023/04/16 04:18:25;;;;;;;59.35;21.20;;;;;;;;;;5026294;28;20124;-60
2023/04/16 04:20:52;;;;;;;55.58;23.08;;;;;;;;;;5025752;28;20372;-60
2023/04/16 04:23:18;;;;;;;51.72;21.48;;;;;;;;;;5025526;28;20266;-60
2023/04/16 04:25:44;;;;;;;59.78;23.00;;;;;;;;;;5024538;28;20518;-60
2023/04/16 04:28:11;;;;;;;55.15;22.67;;;;;;;;;;5025382;28;20045;-60
2023/04/16 04:30:37;;;;;;;56.20;22.52;;;;;;;;;;5025122;28;20046;-59
2023/04/16 04:33:03;;;;;;;55.42;22.52;;;;;;;;;;5026112;28;20056;-60
2023/04/16 04:35:30;;;;;;;53.13;20.83;;;;;;;;;;5025477;28;20041;-60
2023/04/16 04:38:03;;;;;;;47.65;20.35;;;;;;;;;;5026292;28;20053;-60
2023/04/16 04:40:37;;;;;;;48.95;21.55;;;;;;;;;;5025474;28;20085;-62
2023/04/16 04:43:06;;;;;;;56.10;22.38;;;;;;;;;;5024823;28;20047;-61
2023/04/16 04:45:32;;;;;;;48.92;21.85;;;;;;;;;;5024687;28;20045;-62
2023/04/16 04:48:05;;;;;;;53.42;21.67;;;;;;;;;;5024403;28;20045;-62
2023/04/16 04:50:35;;;;;;;51.17;22.33;;;;;;;;;;5024916;28;20052;-64
2023/04/16 04:53:03;;;;;;;52.42;22.65;;;;;;;;;;5011963;28;20041;-61
2023/04/16 04:55:29;;;;;;;50.67;23.00;;;;;;;;;;5025853;28;20084;-63
2023/04/16 04:57:55;;;;;;;47.22;20.80;;;;;;;;;;5023617;28;20037;-61
2023/04/16 05:00:21;;;;;;;53.00;21.95;;;;;;;;;;5023118;28;20100;-61
2023/04/16 05:02:48;;;;;;;50.90;22.17;;;;;;;;;;5024065;28;20049;-61
2023/04/16 05:05:14;;;;;;;46.33;19.90;;;;;;;;;;5024443;28;20069;-60
2023/04/16 05:07:40;;;;;;;44.67;19.85;;;;;;;;;;5024504;28;20135;-60
2023/04/16 05:10:07;;;;;;;49.05;19.70;;;;;;;;;;5024795;28;20045;-61
2023/04/16 05:12:33;;;;;;;55.42;22.17;;;;;;;;;;5024158;28;20107;-60
2023/04/16 05:15:00;;;;;;;50.70;21.00;;;;;;;;;;5023129;28;20534;-60
2023/04/16 05:17:26;;;;;;;44.38;20.10;;;;;;;;;;5023533;28;20048;-59
2023/04/16 05:19:52;;;;;;;52.13;21.05;;;;;;;;;;5023977;28;20120;-61
2023/04/16 05:22:18;;;;;;;50.88;20.98;;;;;;;;;;5023214;28;20574;-60
2023/04/16 05:24:51;;;;;;;48.00;20.38;;;;;;;;;;5025298;28;20041;-60
2023/04/16 05:27:27;;;;;;;50.65;20.00;;;;;;;;;;5023867;28;20092;-60
2023/04/16 05:30:02;;;;;;;56.10;21.65;;;;;;;;;;5025339;28;20050;-60
2023/04/16 05:32:36;;;;;;;49.20;20.20;;;;;;;;;;5024007;28;20076;-61
2023/04/16 05:35:09;;;;;;;54.90;21.60;;;;;;;;;;5023866;28;20049;-61
2023/04/16 05:37:39;;;;;;;53.42;21.02;;;;;;;;;;5024182;28;20597;-60
2023/04/16 05:40:11;;;;;;;52.92;21.65;;;;;;;;;;5025167;28;20184;-60
2023/04/16 05:42:44;;;;;;;52.08;22.88;;;;;;;;;;5024129;28;20698;-61
2023/04/16 05:45:13;;;;;;;59.03;21.20;;;;;;;;;;5025271;28;20050;-60
2023/04/16 05:47:39;;;;;;;52.00;21.05;;;;;;;;;;5024333;28;20053;-60
2023/04/16 05:50:06;;;;;;;53.97;21.50;;;;;;;;;;5025059;28;20045;-60
2023/04/16 05:52:32;;;;;;;55.45;20.27;;;;;;;;;;5024072;28;20114;-60
2023/04/16 05:55:05;;;;;;;48.28;21.33;;;;;;;;;;5024480;28;20088;-60
2023/04/16 05:57:39;;;;;;;53.00;22.00;;;;;;;;;;5023617;28;20419;-61
2023/04/16 06:00:08;;;;;;;54.45;20.60;;;;;;;;;;5024650;28;20041;-60
2023/04/16 06:02:38;;;;;;;48.53;20.95;;;;;;;;;;5024805;28;20049;-60
2023/04/16 06:05:08;;;;;;;49.38;21.80;;;;;;;;;;5020746;28;20395;-60
2023/04/16 06:07:41;;;;;;;49.45;20.77;;;;;;;;;;5024084;28;20056;-60
2023/04/16 06:10:21;;;;;;;56.00;21.15;;;;;;;;;;5021904;28;20098;-60
2023/04/16 06:13:03;;;;;;;44.75;20.75;;;;;;;;;;5024374;28;20513;-60
2023/04/16 06:15:40;;;;;;;44.05;19.33;;;;;;;;;;5025036;28;20742;-60
2023/04/16 06:18:10;;;;;;;47.88;20.33;;;;;;;;;;5024846;28;20660;-60
2023/04/16 06:20:44;;;;;;;45.88;19.30;;;;;;;;;;5022948;28;20041;-61
2023/04/16 06:23:22;;;;;;;40.95;18.75;;;;;;;;;;5017845;28;20048;-61
2023/04/16 06:26:05;;;;;;;40.13;19.45;;;;;;;;;;5021651;28;20033;-61
2023/04/16 06:28:35;;;;;;;44.22;19.10;;;;;;;;;;5024381;28;20055;-62
2023/04/16 06:31:01;;;;;;;46.03;19.00;;;;;;;;;;5024465;28;20042;-62
2023/04/16 06:33:33;;;;;;;42.42;18.55;;;;;;;;;;5024435;28;20038;-61
2023/04/16 06:36:02;;;;;;;45.10;19.40;;;;;;;;;;5023994;28;20053;-61
2023/04/16 06:38:28;;;;;;;45.38;19.75;;;;;;;;;;5024382;28;20045;-61
2023/04/16 06:41:02;;;;;;;41.58;19.58;;;;;;;;;;5023437;28;20048;-61
2023/04/16 06:43:40;;;;;;;46.08;19.13;;;;;;;;;;5024498;28;20046;-61
2023/04/16 06:48:56;;;;;;;46.40;18.40;;;;;;;;;;5022839;28;20050;-61
2023/04/16 06:51:34;;;;;;;49.43;21.33;;;;;;;;;;5023062;28;20049;-61
2023/04/16 06:54:21;;;;;;;48.20;19.38;;;;;;;;;;5020606;28;20793;-62
2023/04/16 06:56:51;;;;;;;43.55;19.17;;;;;;;;;;5023069;28;20133;-62
2023/04/16 06:59:24;;;;;;;42.55;19.08;;;;;;;;;;5023333;28;20564;-62
2023/04/16 07:01:54;;;;;;;39.28;17.92;;;;;;;;;;5022120;28;20041;-62
2023/04/16 07:04:27;;;;;;;41.78;17.85;;;;;;;;;;5021965;28;20055;-63
2023/04/16 07:06:57;;;;;;;43.65;19.70;;;;;;;;;;5019734;28;20045;-62
2023/04/16 07:09:23;;;;;;;50.15;19.73;;;;;;;;;;5014677;28;20597;-62
2023/04/16 07:11:50;;;;;;;38.90;18.70;;;;;;;;;;5021882;28;20088;-62
2023/04/16 07:14:25;;;;;;;38.13;17.95;;;;;;;;;;5023421;28;20499;-62
2023/04/16 07:16:55;;;;;;;44.10;17.95;;;;;;;;;;5023700;28;20087;-62
2023/04/16 07:19:31;;;;;;;36.92;17.30;;;;;;;;;;5023468;28;20042;-62
2023/04/16 07:22:02;;;;;;;43.67;17.35;;;;;;;;;;5016379;28;20046;-62
2023/04/16 07:24:38;;;;;;;38.15;17.00;;;;;;;;;;5015039;28;20045;-62
2023/04/16 07:27:07;;;;;;;38.35;17.30;;;;;;;;;;5022214;28;20057;-61
2023/04/16 07:29:34;;;;;;;35.78;17.98;;;;;;;;;;5023454;28;20127;-61
2023/04/16 07:32:00;;;;;;;33.75;17.00;;;;;;;;;;5022128;28;20099;-62
2023/04/16 07:34:26;;;;;;;40.70;17.27;;;;;;;;;;5023661;28;20046;-60
2023/04/16 07:36:52;;;;;;;39.58;17.75;;;;;;;;;;5021977;28;20045;-61
2023/04/16 07:39:18;;;;;;;33.08;15.98;;;;;;;;;;5022096;28;20045;-61
2023/04/16 07:41:44;;;;;;;36.35;17.35;;;;;;;;;;5020832;28;20076;-62
2023/04/16 07:44:10;;;;;;;36.38;16.73;;;;;;;;;;5022571;28;20546;-62
2023/04/16 07:46:37;;;;;;;43.40;18.42;;;;;;;;;;5025617;28;20045;-61
2023/04/16 07:49:03;;;;;;;44.95;18.23;;;;;;;;;;5026345;28;20056;-62
2023/04/16 07:51:30;;;;;;;35.08;17.40;;;;;;;;;;5027563;28;20076;-62
2023/04/16 07:53:56;;;;;;;39.60;18.25;;;;;;;;;;5027621;28;20505;-62
2023/04/16 07:56:22;;;;;;;37.13;17.65;;;;;;;;;;5026318;28;20498;-62
2023/04/16 07:58:48;;;;;;;42.97;17.10;;;;;;;;;;5026805;28;20049;-62
2023/04/16 08:01:14;;;;;;;35.97;16.65;;;;;;;;;;5027038;28;20051;-61
2023/04/16 08:03:41;;;;;;;48.83;17.20;;;;;;;;;;5026707;28;20061;-62
2023/04/16 08:06:07;;;;;;;36.75;17.33;;;;;;;;;;5027289;28;20108;-61
2023/04/16 08:08:33;;;;;;;42.05;16.58;;;;;;;;;;5026729;28;20064;-62
2023/04/16 08:11:00;;;;;;;51.92;18.27;;;;;;;;;;5025958;28;20084;-62
2023/04/16 08:13:26;;;;;;;44.55;17.77;;;;;;;;;;5042494;28;20059;-62
2023/04/16 08:15:52;;;;;;;33.15;17.15;;;;;;;;;;5026683;28;20601;-62
2023/04/16 08:18:18;;;;;;;46.10;18.70;;;;;;;;;;5026756;28;20488;-62
2023/04/16 08:20:44;;;;;;;40.78;17.88;;;;;;;;;;5026778;28;20041;-62
2023/04/16 08:23:10;;;;;;;43.20;17.55;;;;;;;;;;5026889;28;20088;-63
2023/04/16 08:25:37;;;;;;;45.95;19.55;;;;;;;;;;5024642;28;20896;-63
2023/04/16 08:28:03;;;;;;;46.08;18.17;;;;;;;;;;5025933;28;20049;-63
2023/04/16 08:30:29;;;;;;;40.72;17.58;;;;;;;;;;5026055;28;20045;-63
2023/04/16 08:32:55;;;;;;;41.47;16.55;;;;;;;;;;5026772;28;20041;-63
2023/04/16 08:35:21;;;;;;;42.38;18.48;;;;;;;;;;5025480;28;20497;-63
2023/04/16 08:37:48;;;;;;;44.10;18.48;;;;;;;;;;5026576;28;21129;-63
2023/04/16 08:40:14;;;;;;;46.75;17.75;;;;;;;;;;5026255;28;20189;-62
2023/04/16 08:42:45;;;;;;;37.65;16.83;;;;;;;;;;5024778;28;20048;-63
2023/04/16 08:45:16;;;;;;;47.08;18.17;;;;;;;;;;5019545;28;20511;-63
2023/04/16 08:47:45;;;;;;;43.70;17.90;;;;;;;;;;5026705;28;20519;-63
2023/04/16 08:50:14;;;;;;;39.20;16.33;;;;;;;;;;5026830;28;20037;-62
2023/04/16 08:52:46;;;;;;;43.92;18.27;;;;;;;;;;5026261;28;20514;-63
2023/04/16 08:55:13;;;;;;;46.80;18.85;;;;;;;;;;5024829;28;20060;-63
2023/04/16 08:57:44;;;;;;;47.38;18.13;;;;;;;;;;5024007;28;20553;-63
2023/04/16 09:00:10;;;;;;;41.85;17.15;;;;;;;;;;5026756;28;20053;-62
2023/04/16 09:02:37;;;;;;;38.95;17.05;;;;;;;;;;5026608;28;20041;-63
2023/04/16 09:05:05;;;;;;;40.80;17.42;;;;;;;;;;5025964;28;20402;-63
2023/04/16 09:07:31;;;;;;;34.33;17.35;;;;;;;;;;5026961;28;20057;-62
2023/04/16 09:09:59;;;;;;;38.00;17.48;;;;;;;;;;5026031;28;20041;-62
2023/04/16 09:12:26;;;;;;;38.83;16.73;;;;;;;;;;5026501;28;20064;-62
2023/04/16 09:14:52;;;;;;;41.72;17.48;;;;;;;;;;5026336;28;20315;-63
2023/04/16 09:17:19;;;;;;;39.13;16.90;;;;;;;;;;5026380;28;20585;-62
2023/04/16 09:19:45;;;;;;;43.05;16.80;;;;;;;;;;5023304;28;20038;-63
2023/04/16 09:22:12;;;;;;;40.85;16.15;;;;;;;;;;5024170;28;20414;-62
2023/04/16 09:24:38;;;;;;;32.85;16.25;;;;;;;;;;5025599;28;20081;-63
2023/04/16 09:27:04;;;;;;;47.60;17.58;;;;;;;;;;5024856;28;20544;-63
2023/04/16 09:29:35;;;;;;;34.20;16.02;;;;;;;;;;5026078;28;20057;-63
2023/04/16 09:32:03;;;;;;;32.55;15.60;;;;;;;;;;5037106;28;20037;-63
2023/04/16 09:34:29;;;;;;;30.35;14.57;;;;;;;;;;5044357;28;20049;-63
2023/04/16 09:36:55;;;;;;;27.98;14.98;;;;;;;;;;5030696;28;20056;-63
2023/04/16 09:39:22;;;;;;;31.08;15.45;;;;;;;;;;5022311;28;20042;-62
2023/04/16 09:41:49;;;;;;;30.30;15.07;;;;;;;;;;5022867;28;20569;-63
2023/04/16 09:44:15;;;;;;;35.85;15.85;;;;;;;;;;5024049;28;20033;-63
2023/04/16 09:46:41;;;;;;;35.85;16.30;;;;;;;;;;5025202;28;20046;-63
2023/04/16 09:49:13;;;;;;;28.30;14.23;;;;;;;;;;5021556;28;20034;-63
2023/04/16 09:51:42;;;;;;;32.47;14.85;;;;;;;;;;5022039;28;20068;-63
2023/04/16 09:54:08;;;;;;;30.13;14.38;;;;;;;;;;5025917;28;20049;-62
2023/04/16 09:56:39;;;;;;;26.33;15.50;;;;;;;;;;5024630;28;20702;-62
2023/04/16 09:59:05;;;;;;;30.08;14.88;;;;;;;;;;5025058;28;20124;-63
2023/04/16 10:01:31;;;;;;;30.60;15.02;;;;;;;;;;5023230;28;20053;-62
2023/04/16 10:03:58;;;;;;;29.63;14.75;;;;;;;;;;5025082;28;20717;-63
2023/04/16 10:06:25;;;;;;;27.63;15.27;;;;;;;;;;5024872;28;20076;-64
2023/04/16 10:08:55;;;;;;;30.30;15.20;;;;;;;;;;5023442;28;20601;-64
2023/04/16 10:11:22;;;;;;;29.73;14.40;;;;;;;;;;5022550;28;20107;-64
2023/04/16 10:13:49;;;;;;;29.27;15.00;;;;;;;;;;5024458;28;20240;-64
2023/04/16 10:16:15;;;;;;;27.77;14.05;;;;;;;;;;5024715;28;20045;-64
2023/04/16 10:18:42;;;;;;;24.98;14.35;;;;;;;;;;5024355;28;20044;-65
2023/04/16 10:21:11;;;;;;;28.13;13.70;;;;;;;;;;5024213;28;20725;-64
2023/04/16 10:23:37;;;;;;;;;;;;;;;;;;5024671;28;20430;-64
2023/04/16 10:26:04;;;;;;;31.85;14.70;;;;;;;;;;5023378;28;20640;-65
2023/04/16 10:28:31;;;;;;;24.15;12.63;;;;;;;;;;5024115;28;20052;-65
2023/04/16 10:30:57;;;;;;;24.23;14.70;;;;;;;;;;5024809;28;20040;-65
2023/04/16 10:33:26;;;;;;;24.42;14.25;;;;;;;;;;5024918;28;20099;-65
2023/04/16 10:35:52;;;;;;;;;;;;;;;;;;5024708;28;20038;-64
2023/04/16 10:38:25;;;;;;;25.73;13.90;;;;;;;;;;5022960;28;19951;-65
2023/04/16 10:41:02;;;;;;;24.15;13.27;;;;;;;;;;5023039;28;20048;-64
2023/04/16 10:43:30;;;;;;;28.15;13.57;;;;;;;;;;5023036;28;20059;-64
2023/04/16 10:45:56;;;;;;;23.10;12.35;;;;;;;;;;5024405;28;20483;-64
2023/04/16 10:48:24;;;;;;;25.75;13.68;;;;;;;;;;5023707;28;20124;-64
2023/04/16 10:50:55;;;;;;;22.45;13.38;;;;;;;;;;5023951;28;20116;-64
2023/04/16 10:53:23;;;;;;;21.95;13.68;;;;;;;;;;5024187;28;20053;-64
2023/04/16 10:55:55;;;;;;;21.67;12.45;;;;;;;;;;5021106;28;20041;-64
2023/04/16 10:58:28;;;;;;;25.83;13.38;;;;;;;;;;5023871;28;20041;-64
2023/04/16 11:01:00;;;;;;;22.33;13.18;;;;;;;;;;5023816;28;20115;-64
2023/04/16 11:03:30;;;;;;;26.77;13.98;;;;;;;;;;5024549;28;20037;-64
2023/04/16 11:06:13;;;;;;;25.00;13.30;;;;;;;;;;5024448;28;20099;-66
2023/04/16 11:08:41;;;;;;;29.73;13.25;;;;;;;;;;5023497;28;20044;-64
2023/04/16 11:11:07;;;;;;;24.15;13.02;;;;;;;;;;5022715;28;20092;-64
2023/04/16 11:13:35;;;;;;;23.30;12.90;;;;;;;;;;5023873;28;20045;-65
2023/04/16 11:16:01;;;;;;;20.63;13.18;;;;;;;;;;5023730;28;20407;-65
2023/04/16 11:18:27;;;;;;;20.55;13.02;;;;;;;;;;5024336;28;20065;-65
2023/04/16 11:20:53;;;;;;;25.70;13.70;;;;;;;;;;5025378;28;20065;-64
2023/04/16 11:23:20;;;;;;;25.98;13.30;;;;;;;;;;5027514;28;20049;-65
2023/04/16 11:25:46;;;;;;;21.20;12.68;;;;;;;;;;5026771;28;20037;-63
2023/04/16 11:28:12;;;;;;;23.33;12.77;;;;;;;;;;5026259;28;20624;-63
2023/04/16 11:30:39;;;;;;;27.38;13.45;;;;;;;;;;5027649;28;20037;-64
2023/04/16 11:33:07;;;;;;;23.45;12.40;;;;;;;;;;5027771;28;20040;-63
2023/04/16 11:35:33;;;;;;;27.38;12.82;;;;;;;;;;5027770;28;20096;-63
2023/04/16 11:37:59;;;;;;;22.30;12.70;;;;;;;;;;5027247;28;20041;-63
2023/04/16 11:40:30;;;;;;;22.25;13.07;;;;;;;;;;5027027;28;20045;-64
2023/04/16 11:42:56;;;;;;;22.25;13.48;;;;;;;;;;5027623;28;20038;-63
2023/04/16 11:45:22;;;;;;;26.90;13.52;;;;;;;;;;5027480;28;20458;-64
2023/04/16 11:47:50;;;;;;;29.02;13.38;;;;;;;;;;5027413;28;20350;-64
2023/04/16 11:50:22;;;;;;;24.90;13.23;;;;;;;;;;5027138;28;20073;-65
2023/04/16 11:52:48;;;;;;;25.23;13.10;;;;;;;;;;5027437;28;20674;-66
2023/04/16 11:55:15;;;;;;;27.20;13.75;;;;;;;;;;5027107;28;20047;-63
2023/04/16 11:57:41;;;;;;;29.50;13.55;;;;;;;;;;5027141;28;20082;-66
2023/04/16 12:00:12;;;;;;;25.33;13.15;;;;;;;;;;5025452;28;20038;-66
2023/04/16 12:02:41;;;;;;;22.73;13.90;;;;;;;;;;5026768;28;20097;-66
2023/04/16 12:05:07;;;;;;;;;;;;;;;;;;5027712;28;20094;-67
2023/04/16 12:07:45;;;;;;;29.35;12.73;;;;;;;;;;5026577;28;20294;-66
2023/04/16 12:10:12;;;;;;;25.27;13.32;;;;;;;;;;5026056;28;20106;-66
2023/04/16 12:12:38;;;;;;;27.13;12.93;;;;;;;;;;5026432;28;20049;-65
2023/04/16 12:15:04;;;;;;;23.48;13.85;;;;;;;;;;5026580;28;20487;-66
2023/04/16 12:17:32;;;;;;;29.15;14.57;;;;;;;;;;5026979;28;20412;-66
2023/04/16 12:19:59;;;;;;;28.95;13.38;;;;;;;;;;5026624;28;20128;-65
2023/04/16 12:22:28;;;;;;;22.00;13.30;;;;;;;;;;5025793;28;20060;-64
2023/04/16 12:24:57;;;;;;;25.33;13.55;;;;;;;;;;5026362;28;20144;-65
2023/04/16 12:27:27;;;;;;;29.02;13.43;;;;;;;;;;5026876;28;20053;-65
2023/04/16 12:30:06;;;;;;;27.13;14.25;;;;;;;;;;5026361;28;20046;-64
2023/04/16 12:32:32;;;;;;;27.98;13.80;;;;;;;;;;5026192;28;20042;-65
2023/04/16 12:34:59;;;;;;;23.50;13.00;;;;;;;;;;5026558;28;20080;-65
2023/04/16 12:37:25;;;;;;;29.83;13.65;;;;;;;;;;5026908;28;20137;-65
2023/04/16 12:39:51;;;;;;;30.52;13.95;;;;;;;;;;5025561;28;20056;-65
2023/04/16 12:42:17;;;;;;;28.23;13.40;;;;;;;;;;5026579;28;20072;-64
2023/04/16 12:44:43;;;;;;;29.20;13.38;;;;;;;;;;5026331;28;20041;-65
2023/04/16 12:47:10;;;;;;;22.15;12.77;;;;;;;;;;5025746;28;20045;-63
2023/04/16 12:49:36;;;;;;;29.80;13.23;;;;;;;;;;5026271;28;20146;-65
2023/04/16 12:52:03;;;;;;;27.27;13.35;;;;;;;;;;5026190;28;20033;-64
2023/04/16 12:54:30;;;;;;;26.50;13.88;;;;;;;;;;5025634;28;20085;-63
2023/04/16 12:56:56;;;;;;;26.42;12.43;;;;;;;;;;5026365;28;20166;-63
2023/04/16 12:59:23;;;;;;;30.13;14.43;;;;;;;;;;5026019;28;20041;-64
2023/04/16 13:01:49;;;;;;;24.92;13.15;;;;;;;;;;5025532;28;20045;-64
2023/04/16 13:04:17;;;;;;;27.08;14.18;;;;;;;;;;5026202;28;20089;-64
2023/04/16 13:06:43;;;;;;;;;;;;;;;;;;5025867;28;20502;-64
2023/04/16 13:09:10;;;;;;;25.52;12.98;;;;;;;;;;5026001;28;19932;-65
2023/04/16 13:11:36;;;;;;;25.83;14.13;;;;;;;;;;5024300;28;20054;-65
2023/04/16 13:14:03;;;;;;;29.70;14.23;;;;;;;;;;5025994;28;20049;-64
2023/04/16 13:16:29;;;;;;;32.03;14.63;;;;;;;;;;5025937;28;20084;-65
2023/04/16 13:18:55;;;;;;;22.23;13.25;;;;;;;;;;5025642;28;20124;-64
2023/04/16 13:21:22;;;;;;;28.60;13.77;;;;;;;;;;5025223;28;20247;-64
2023/04/16 13:23:48;;;;;;;25.75;14.20;;;;;;;;;;5025225;28;20068;-64
2023/04/16 13:26:15;;;;;;;24.08;12.63;;;;;;;;;;5024600;28;20046;-64
2023/04/16 13:28:41;;;;;;;27.65;13.88;;;;;;;;;;5025356;28;20041;-65
2023/04/16 13:31:07;;;;;;;22.05;13.48;;;;;;;;;;5025729;28;20535;-65
2023/04/16 13:33:33;;;;;;;25.48;13.68;;;;;;;;;;5025808;28;20081;-64
2023/04/16 13:36:00;;;;;;;32.78;13.90;;;;;;;;;;5025226;28;20108;-64
2023/04/16 13:38:26;;;;;;;25.30;13.50;;;;;;;;;;5025806;28;20045;-64
2023/04/16 13:40:52;;;;;;;25.38;13.60;;;;;;;;;;5024289;28;20057;-63
2023/04/16 13:43:25;;;;;;;21.20;13.75;;;;;;;;;;5023916;28;20045;-63
2023/04/16 13:45:52;;;;;;;25.60;13.65;;;;;;;;;;5025015;28;20056;-63
2023/04/16 13:48:18;;;;;;;26.45;13.02;;;;;;;;;;5025273;28;20050;-63
2023/04/16 13:50:44;;;;;;;25.60;14.10;;;;;;;;;;5024821;28;20076;-64
2023/04/16 13:53:10;;;;;;;23.38;13.20;;;;;;;;;;5025197;28;20044;-64
2023/04/16 13:55:36;;;;;;;25.38;13.43;;;;;;;;;;5024043;28;20057;-63
2023/04/16 13:58:03;;;;;;;26.85;13.20;;;;;;;;;;5024892;28;20574;-63
2023/04/16 14:00:29;;;;;;;27.55;12.93;;;;;;;;;;5024653;28;20049;-63
2023/04/16 14:02:55;;;;;;;25.05;13.02;;;;;;;;;;5024672;28;20503;-64
2023/04/16 14:05:22;;;;;;;28.27;13.75;;;;;;;;;;5024883;28;20034;-63
2023/04/16 14:07:48;;;;;;;24.85;13.95;;;;;;;;;;5024854;28;20639;-63
2023/04/16 14:10:15;;;;;;;25.13;14.38;;;;;;;;;;5022262;28;20471;-65
2023/04/16 14:12:41;;;;;;;23.95;13.73;;;;;;;;;;5024309;28;20058;-63
2023/04/16 14:15:08;;;;;;;24.50;13.05;;;;;;;;;;5023621;28;20445;-64
2023/04/16 14:17:35;;;;;;;26.52;13.88;;;;;;;;;;5024607;28;20045;-64
2023/04/16 14:20:03;;;;;;;29.85;13.13;;;;;;;;;;5024007;28;20049;-64
2023/04/16 14:22:29;;;;;;;26.25;14.00;;;;;;;;;;5024845;28;20053;-65
2023/04/16 14:24:56;;;;;;;29.55;13.35;;;;;;;;;;5023653;28;20037;-64
2023/04/16 14:27:22;;;;;;;25.77;13.18;;;;;;;;;;5024593;28;20041;-64
2023/04/16 14:29:48;;;;;;;21.95;12.38;;;;;;;;;;5024292;28;20049;-64